createdAt,value
2023-03-08T00:01:22.736Z,6.75
2023-03-08T00:03:54.893Z,6.63
2023-03-08T00:06:22.763Z,6.63
2023-03-08T00:08:49.731Z,7.43
2023-03-08T00:11:18.070Z,6.93
2023-03-08T00:13:44.812Z,7.43
2023-03-08T00:16:13.944Z,7.28
2023-03-08T00:18:40.990Z,7.13
2023-03-08T00:21:13.843Z,7.25
2023-03-08T00:23:41.453Z,6.93
2023-03-08T00:26:08.440Z,7.55
2023-03-08T00:28:36.059Z,7.15
2023-03-08T00:31:06.280Z,7.68
2023-03-08T00:33:33.913Z,7.13
2023-03-08T00:36:04.096Z,7.63
2023-03-08T00:38:32.585Z,6.97
2023-03-08T00:41:00.238Z,6.70
2023-03-08T00:43:28.075Z,7.80
2023-03-08T00:45:54.860Z,7.00
2023-03-08T00:48:23.089Z,8.07
2023-03-08T00:50:52.663Z,7.93
2023-03-08T00:53:19.789Z,7.80
2023-03-08T00:55:55.189Z,7.55
2023-03-08T00:58:23.702Z,7.65
2023-03-08T01:00:50.893Z,8.00
2023-03-08T01:03:18.930Z,8.07
2023-03-08T01:05:48.861Z,8.68
2023-03-08T01:08:17.221Z,8.30
2023-03-08T01:10:52.595Z,8.02
2023-03-08T01:13:20.607Z,8.07
2023-03-08T01:15:47.453Z,8.13
2023-03-08T01:18:14.581Z,7.38
2023-03-08T01:20:41.397Z,7.78
2023-03-08T01:23:08.724Z,7.85
2023-03-08T01:25:35.755Z,7.55
2023-03-08T01:28:02.553Z,7.78
2023-03-08T01:30:29.307Z,8.18
2023-03-08T01:32:56.676Z,7.28
2023-03-08T01:35:25.937Z,7.57
2023-03-08T01:37:55.469Z,8.32
2023-03-08T01:40:22.959Z,7.43
2023-03-08T01:42:49.800Z,7.57
2023-03-08T01:45:54.516Z,8.63
2023-03-08T01:48:33.536Z,7.47
2023-03-08T01:51:06.817Z,8.60
2023-03-08T01:53:37.186Z,8.00
2023-03-08T01:56:08.949Z,7.90
2023-03-08T01:58:36.177Z,8.52
2023-03-08T02:01:03.210Z,8.43
2023-03-08T02:03:30.647Z,8.23
2023-03-08T02:05:58.168Z,8.50
2023-03-08T02:08:25.221Z,7.60
2023-03-08T02:10:52.289Z,8.00
2023-03-08T02:13:20.346Z,9.07
2023-03-08T02:15:49.881Z,7.72
2023-03-08T02:18:19.915Z,8.60
2023-03-08T02:20:46.663Z,8.77
2023-03-08T02:23:16.666Z,8.48
2023-03-08T02:25:50.997Z,9.50
2023-03-08T02:28:19.128Z,8.52
2023-03-08T02:30:45.944Z,7.80
2023-03-08T02:33:15.020Z,8.65
2023-03-08T02:35:44.073Z,8.20
2023-03-08T02:38:14.186Z,8.23
2023-03-08T02:40:41.321Z,7.90
2023-03-08T02:43:08.837Z,8.20
2023-03-08T02:45:36.194Z,6.88
2023-03-08T02:48:04.369Z,7.72
2023-03-08T02:50:31.738Z,8.20
2023-03-08T02:52:59.063Z,7.45
2023-03-08T02:55:26.688Z,7.47
2023-03-08T02:57:53.787Z,7.55
2023-03-08T03:00:20.815Z,8.70
2023-03-08T03:02:48.012Z,8.23
2023-03-08T03:05:14.816Z,7.75
2023-03-08T03:07:43.521Z,7.97
2023-03-08T03:10:16.493Z,7.65
2023-03-08T03:12:44.057Z,7.57
2023-03-08T03:15:15.182Z,7.28
2023-03-08T03:17:44.300Z,7.30
2023-03-08T03:20:11.864Z,7.50
2023-03-08T03:22:38.836Z,7.53
2023-03-08T03:25:08.035Z,7.00
2023-03-08T03:27:34.766Z,7.57
2023-03-08T03:30:01.872Z,7.65
2023-03-08T03:32:29.833Z,7.82
2023-03-08T03:34:56.740Z,7.32
2023-03-08T03:37:24.281Z,7.22
2023-03-08T03:39:51.077Z,7.70
2023-03-08T03:42:19.015Z,7.35
2023-03-08T03:44:59.859Z,7.45
2023-03-08T03:47:26.971Z,7.95
2023-03-08T03:49:57.909Z,7.53
2023-03-08T03:52:27.396Z,6.80
2023-03-08T03:57:27.886Z,8.07
2023-03-08T03:59:55.285Z,6.90
2023-03-08T04:02:23.412Z,7.13
2023-03-08T04:07:27.321Z,7.15
2023-03-08T04:09:57.374Z,8.20
2023-03-08T04:12:25.253Z,7.80
2023-03-08T04:14:53.773Z,7.93
2023-03-08T04:17:21.536Z,7.53
2023-03-08T04:19:52.016Z,7.90
2023-03-08T04:22:20.022Z,8.15
2023-03-08T04:24:51.783Z,7.50
2023-03-08T04:27:32.316Z,7.65
2023-03-08T04:29:59.342Z,7.22
2023-03-08T04:32:28.409Z,7.20
2023-03-08T04:34:57.607Z,7.32
2023-03-08T04:37:27.368Z,8.13
2023-03-08T04:40:00.492Z,7.60
2023-03-08T04:42:28.064Z,7.13
2023-03-08T04:44:55.535Z,8.25
2023-03-08T04:47:23.908Z,7.97
2023-03-08T04:49:50.662Z,7.88
2023-03-08T04:52:17.500Z,7.03
2023-03-08T04:54:44.855Z,8.00
2023-03-08T04:57:20.934Z,8.43
2023-03-08T04:59:49.120Z,7.15
2023-03-08T05:02:16.860Z,7.75
2023-03-08T05:04:45.693Z,7.65
2023-03-08T05:07:12.552Z,8.02
2023-03-08T05:09:39.704Z,7.93
2023-03-08T05:12:06.852Z,7.78
2023-03-08T05:14:43.961Z,8.55
2023-03-08T05:17:10.862Z,8.77
2023-03-08T05:19:37.614Z,8.48
2023-03-08T05:22:06.113Z,9.10
2023-03-08T05:24:35.142Z,7.90
2023-03-08T05:27:08.224Z,8.32
2023-03-08T05:29:37.238Z,8.23
2023-03-08T05:32:06.073Z,7.82
2023-03-08T05:34:34.086Z,8.05
2023-03-08T05:37:02.756Z,8.55
2023-03-08T05:39:31.451Z,8.65
2023-03-08T05:42:09.491Z,8.02
2023-03-08T05:44:40.170Z,9.15
2023-03-08T05:47:09.244Z,8.38
2023-03-08T05:49:36.934Z,9.30
2023-03-08T05:52:04.819Z,8.15
2023-03-08T05:54:31.717Z,9.10
2023-03-08T05:57:02.817Z,8.98
2023-03-08T05:59:30.787Z,9.57
2023-03-08T06:02:01.886Z,9.10
2023-03-08T06:04:39.655Z,9.48
2023-03-08T06:07:06.484Z,9.88
2023-03-08T06:09:38.243Z,10.13
2023-03-08T06:12:07.352Z,11.02
2023-03-08T06:14:34.339Z,9.80
2023-03-08T06:17:01.874Z,9.65
2023-03-08T06:19:31.690Z,10.10
2023-03-08T06:21:58.576Z,9.90
2023-03-08T06:24:26.650Z,10.38
2023-03-08T06:26:55.633Z,10.77
2023-03-08T06:29:23.081Z,10.55
2023-03-08T06:31:50.463Z,10.48
2023-03-08T06:34:17.966Z,11.52
2023-03-08T06:36:46.257Z,10.93
2023-03-08T06:39:13.292Z,10.93
2023-03-08T06:41:40.460Z,11.48
2023-03-08T06:44:07.380Z,11.00
2023-03-08T06:46:34.135Z,10.57
2023-03-08T06:49:01.257Z,11.13
2023-03-08T06:51:28.163Z,11.18
2023-03-08T06:53:55.089Z,11.20
2023-03-08T06:56:26.542Z,11.70
2023-03-08T06:58:53.390Z,11.68
2023-03-08T07:01:20.241Z,10.77
2023-03-08T07:03:48.752Z,10.90
2023-03-08T07:06:15.580Z,11.05
2023-03-08T07:08:42.318Z,11.48
2023-03-08T07:11:09.989Z,11.23
2023-03-08T07:13:38.038Z,11.38
2023-03-08T07:16:12.828Z,11.23
2023-03-08T07:18:40.604Z,10.82
2023-03-08T07:21:08.028Z,11.30
2023-03-08T07:23:34.770Z,11.80
2023-03-08T07:26:05.841Z,11.57
2023-03-08T07:28:32.854Z,12.10
2023-03-08T07:30:59.595Z,10.63
2023-03-08T07:33:26.324Z,10.38
2023-03-08T07:35:53.180Z,9.77
2023-03-08T07:38:20.201Z,10.63
2023-03-08T07:40:55.000Z,9.10
2023-03-08T07:43:21.887Z,9.48
2023-03-08T07:46:01.880Z,8.60
2023-03-08T07:48:29.675Z,8.80
2023-03-08T07:51:06.464Z,8.35
2023-03-08T07:53:34.518Z,8.65
2023-03-08T07:56:01.570Z,8.63
2023-03-08T07:58:29.283Z,9.02
2023-03-08T08:00:56.247Z,9.00
2023-03-08T08:03:23.230Z,8.68
2023-03-08T08:05:50.079Z,8.35
2023-03-08T08:08:17.232Z,8.60
2023-03-08T08:10:44.571Z,9.00
2023-03-08T08:13:11.590Z,8.55
2023-03-08T08:15:38.403Z,9.43
2023-03-08T08:18:05.391Z,9.57
2023-03-08T08:20:32.116Z,8.77
2023-03-08T08:22:58.861Z,8.82
2023-03-08T08:25:25.845Z,9.00
2023-03-08T08:27:52.717Z,8.45
2023-03-08T08:30:19.669Z,9.80
2023-03-08T08:32:46.540Z,10.30
2023-03-08T08:35:13.487Z,9.40
2023-03-08T08:37:40.271Z,9.68
2023-03-08T08:40:11.099Z,9.45
2023-03-08T08:42:37.853Z,9.32
2023-03-08T08:45:05.152Z,9.85
2023-03-08T08:47:32.214Z,9.80
2023-03-08T08:49:59.061Z,9.88
2023-03-08T08:52:25.819Z,10.00
2023-03-08T08:54:53.454Z,10.55
2023-03-08T08:57:20.290Z,10.43
2023-03-08T08:59:47.357Z,9.77
2023-03-08T09:02:14.702Z,10.30
2023-03-08T09:04:41.646Z,9.13
2023-03-08T09:07:08.625Z,9.25
2023-03-08T09:09:35.517Z,11.20
2023-03-08T09:12:02.265Z,9.32
2023-03-08T09:14:29.011Z,9.32
2023-03-08T09:16:55.828Z,9.10
2023-03-08T09:19:22.642Z,8.80
2023-03-08T09:21:49.415Z,9.20
2023-03-08T09:24:17.048Z,8.50
2023-03-08T09:26:43.820Z,8.77
2023-03-08T09:29:12.042Z,8.48
2023-03-08T09:31:39.774Z,8.48
2023-03-08T09:34:09.160Z,8.68
2023-03-08T09:36:39.804Z,8.35
2023-03-08T09:39:08.883Z,8.80
2023-03-08T09:41:44.673Z,8.70
2023-03-08T09:44:30.281Z,8.63
2023-03-08T09:47:13.486Z,8.32
2023-03-08T09:49:43.078Z,8.45
2023-03-08T09:52:31.654Z,8.25
2023-03-08T09:55:00.873Z,7.85
2023-03-08T09:57:34.236Z,7.95
2023-03-08T10:00:08.270Z,7.30
2023-03-08T10:03:26.677Z,7.18
2023-03-08T10:06:20.376Z,8.02
2023-03-08T10:09:08.030Z,7.57
2023-03-08T10:11:50.874Z,7.65
2023-03-08T10:14:24.117Z,6.95
2023-03-08T10:16:57.221Z,6.63
2023-03-08T10:21:56.988Z,6.45
2023-03-08T10:24:36.947Z,5.93
2023-03-08T10:27:18.656Z,6.65
2023-03-08T10:29:50.638Z,5.90
2023-03-08T10:32:17.852Z,5.95
2023-03-08T10:34:44.685Z,5.82
2023-03-08T10:37:11.495Z,5.20
2023-03-08T10:39:53.280Z,5.68
2023-03-08T10:42:22.839Z,5.03
2023-03-08T10:45:04.061Z,4.03
2023-03-08T10:47:33.457Z,3.30
2023-03-08T10:50:19.936Z,2.72
2023-03-08T10:52:48.888Z,2.38
2023-03-08T10:55:21.933Z,2.00
2023-03-08T11:00:35.534Z,1.38
2023-03-08T11:03:13.501Z,1.05
2023-03-08T11:05:50.538Z,0.90
2023-03-08T11:08:21.044Z,1.00
2023-03-08T11:10:47.901Z,0.70
2023-03-08T11:13:24.048Z,1.23
2023-03-08T11:16:31.285Z,0.90
2023-03-08T11:19:06.492Z,1.08
2023-03-08T11:21:39.524Z,0.73
2023-03-08T11:24:37.315Z,0.70
2023-03-08T11:27:41.688Z,1.02
2023-03-08T11:30:17.867Z,0.73
2023-03-08T11:33:03.114Z,0.90
2023-03-08T11:35:44.564Z,0.70
2023-03-08T11:38:24.196Z,0.70
2023-03-08T11:41:29.920Z,0.93
2023-03-08T11:44:06.863Z,1.10
2023-03-08T11:46:53.500Z,0.88
2023-03-08T11:49:46.273Z,0.80
2023-03-08T11:52:43.396Z,0.80
2023-03-08T11:55:22.590Z,0.95
2023-03-08T11:58:25.382Z,0.75
2023-03-08T12:00:56.791Z,0.93
2023-03-08T12:03:35.020Z,0.65
2023-03-08T12:06:22.816Z,0.93
2023-03-08T12:09:32.730Z,0.73
2023-03-08T12:12:08.868Z,0.82
2023-03-08T12:14:46.232Z,0.80
2023-03-08T12:17:27.268Z,0.70
2023-03-08T12:19:54.123Z,0.50
2023-03-08T12:22:33.444Z,0.50
2023-03-08T12:25:05.992Z,0.82
2023-03-08T12:27:41.084Z,0.50
2023-03-08T12:30:10.766Z,0.63
2023-03-08T12:32:39.668Z,0.50
2023-03-08T12:35:28.693Z,0.70
2023-03-08T12:37:56.626Z,0.57
2023-03-08T12:40:30.631Z,0.70
2023-03-08T12:43:20.617Z,0.52
2023-03-08T12:46:11.202Z,0.70
2023-03-08T12:48:47.647Z,0.60
2023-03-08T12:51:14.609Z,0.60
2023-03-08T12:53:46.034Z,0.88
2023-03-08T12:56:18.368Z,0.50
2023-03-08T12:58:56.812Z,0.70
2023-03-08T13:01:37.526Z,0.80
2023-03-08T13:04:39.133Z,0.65
2023-03-08T13:07:26.434Z,0.60
2023-03-08T13:10:07.398Z,0.65
2023-03-08T13:12:59.703Z,0.50
2023-03-08T13:15:27.032Z,0.50
2023-03-08T13:18:10.304Z,0.70
2023-03-08T13:20:41.754Z,0.80
2023-03-08T13:23:14.748Z,0.77
2023-03-08T13:26:02.469Z,0.50
2023-03-08T13:28:46.456Z,0.55
2023-03-08T13:31:20.248Z,0.52
2023-03-08T13:33:50.311Z,0.60
2023-03-08T13:36:21.328Z,0.50
2023-03-08T13:39:17.977Z,0.55
2023-03-08T13:41:45.923Z,0.70
2023-03-08T13:44:24.204Z,0.50
2023-03-08T13:46:57.223Z,0.32
2023-03-08T13:49:31.244Z,0.60
2023-03-08T13:52:01.671Z,0.43
2023-03-08T13:54:34.719Z,0.50
2023-03-08T13:57:07.481Z,0.60
2023-03-08T13:59:38.056Z,0.50
2023-03-08T14:02:23.725Z,0.30
2023-03-08T14:04:50.843Z,0.40
2023-03-08T14:07:28.008Z,0.32
2023-03-08T14:09:55.981Z,0.25
2023-03-08T14:12:26.193Z,0.40
2023-03-08T14:14:56.988Z,0.40
2023-03-08T14:17:27.235Z,0.40
2023-03-08T14:20:05.166Z,0.22
2023-03-08T14:22:40.463Z,0.30
2023-03-08T14:25:31.344Z,0.43
2023-03-08T14:27:58.811Z,0.13
2023-03-08T14:30:30.468Z,0.20
2023-03-08T14:33:02.212Z,0.10
2023-03-08T14:35:39.793Z,0.20
2023-03-08T14:38:23.029Z,0.20
2023-03-08T14:40:50.394Z,0.20
2023-03-08T14:43:20.323Z,0.40
2023-03-08T14:46:06.081Z,0.20
2023-03-08T14:48:38.497Z,0.30
2023-03-08T14:51:24.167Z,0.22
2023-03-08T14:54:05.804Z,0.30
2023-03-08T14:56:33.657Z,0.30
2023-03-08T14:59:03.700Z,0.57
2023-03-08T15:01:33.946Z,0.22
2023-03-08T15:04:01.779Z,0.30
2023-03-08T15:06:34.202Z,0.40
2023-03-08T15:09:03.816Z,0.30
2023-03-08T15:11:32.193Z,0.60
2023-03-08T15:14:00.223Z,0.40
2023-03-08T15:16:27.295Z,0.43
2023-03-08T15:18:54.120Z,0.60
2023-03-08T15:21:25.716Z,0.60
2023-03-08T15:23:52.944Z,0.47
2023-03-08T15:26:26.234Z,0.40
2023-03-08T15:28:53.685Z,0.50
2023-03-08T15:31:22.014Z,0.45
2023-03-08T15:33:48.940Z,0.30
2023-03-08T15:36:17.839Z,0.32
2023-03-08T15:38:45.431Z,0.30
2023-03-08T15:41:13.692Z,0.30
2023-03-08T15:43:40.645Z,0.30
2023-03-08T15:46:10.276Z,0.57
2023-03-08T15:48:37.380Z,0.90
2023-03-08T15:51:04.452Z,0.28
2023-03-08T15:53:35.659Z,0.35
2023-03-08T15:56:03.177Z,0.40
2023-03-08T15:58:29.968Z,0.57
2023-03-08T16:00:56.772Z,0.22
2023-03-08T16:03:30.812Z,0.70
2023-03-08T16:05:58.607Z,0.60
2023-03-08T16:08:25.879Z,0.55
2023-03-08T16:10:52.796Z,0.50
2023-03-08T16:13:21.902Z,0.70
2023-03-08T16:15:49.294Z,1.10
2023-03-08T16:18:16.302Z,0.30
2023-03-08T16:20:43.444Z,0.47
2023-03-08T16:23:10.252Z,0.30
2023-03-08T16:25:37.085Z,0.40
2023-03-08T16:28:04.004Z,0.40
2023-03-08T16:30:31.097Z,0.38
2023-03-08T16:32:57.848Z,0.20
2023-03-08T16:35:24.597Z,0.45
2023-03-08T16:37:53.830Z,0.50
2023-03-08T16:40:20.798Z,0.30
2023-03-08T16:42:50.855Z,0.20
2023-03-08T16:45:17.630Z,0.47
2023-03-08T16:47:44.417Z,0.30
2023-03-08T16:50:14.288Z,0.25
2023-03-08T16:52:41.239Z,0.45
2023-03-08T16:55:08.382Z,0.38
2023-03-08T16:57:37.473Z,0.57
2023-03-08T17:00:06.634Z,0.40
2023-03-08T17:02:33.452Z,0.50
2023-03-08T17:05:00.199Z,0.60
2023-03-08T17:07:26.962Z,0.47
2023-03-08T17:09:53.685Z,0.50
2023-03-08T17:12:20.444Z,0.30
2023-03-08T17:14:47.273Z,0.50
2023-03-08T17:17:14.139Z,0.47
2023-03-08T17:19:41.232Z,0.50
2023-03-08T17:22:08.854Z,0.45
2023-03-08T17:24:35.658Z,0.50
2023-03-08T17:27:02.413Z,0.50
2023-03-08T17:29:29.198Z,0.60
2023-03-08T17:31:55.987Z,0.60
2023-03-08T17:34:23.151Z,0.80
2023-03-08T17:36:51.001Z,0.32
2023-03-08T17:39:18.390Z,0.45
2023-03-08T17:41:45.596Z,0.30
2023-03-08T17:44:12.608Z,0.43
2023-03-08T17:46:39.792Z,0.57
2023-03-08T17:49:06.724Z,0.38
2023-03-08T17:51:34.069Z,0.60
2023-03-08T17:54:02.223Z,0.50
2023-03-08T17:56:31.120Z,0.32
2023-03-08T17:59:00.045Z,0.60
2023-03-08T18:01:29.413Z,0.70
2023-03-08T18:03:57.855Z,0.70
2023-03-08T18:06:26.821Z,0.80
2023-03-08T18:08:53.578Z,0.90
2023-03-08T18:11:20.831Z,0.88
2023-03-08T18:13:48.756Z,0.82
2023-03-08T18:16:15.556Z,0.50
2023-03-08T18:18:42.469Z,0.73
2023-03-08T18:21:13.845Z,0.60
2023-03-08T18:23:42.718Z,0.50
2023-03-08T18:26:14.068Z,0.65
2023-03-08T18:28:41.023Z,0.60
2023-03-08T18:31:09.797Z,0.40
2023-03-08T18:33:36.843Z,0.40
2023-03-08T18:36:03.892Z,0.68
2023-03-08T18:38:30.708Z,0.60
2023-03-08T18:40:57.570Z,0.60
2023-03-08T18:43:25.372Z,0.30
2023-03-08T18:45:53.743Z,0.50
2023-03-08T18:48:22.151Z,0.40
2023-03-08T18:50:49.322Z,0.47
2023-03-08T18:53:16.260Z,0.52
2023-03-08T18:56:15.514Z,0.52
2023-03-08T18:58:43.230Z,0.63
2023-03-08T19:01:39.025Z,0.80
2023-03-08T19:04:09.313Z,0.30
2023-03-08T19:07:22.158Z,0.50
2023-03-08T19:13:08.889Z,0.60
2023-03-08T19:15:43.160Z,0.43
2023-03-08T19:18:10.520Z,0.20
2023-03-08T19:20:41.439Z,0.57
2023-03-08T19:23:09.610Z,0.40
2023-03-08T19:26:00.287Z,0.35
2023-03-08T19:28:27.275Z,0.40
2023-03-08T19:30:54.030Z,0.50
2023-03-08T19:33:30.562Z,0.40
2023-03-08T19:35:58.922Z,0.63
2023-03-08T19:38:25.771Z,0.50
2023-03-08T19:40:52.681Z,0.43
2023-03-08T19:43:19.568Z,0.60
2023-03-08T19:45:50.207Z,1.38
2023-03-08T19:48:17.029Z,0.60
2023-03-08T19:50:47.038Z,0.57
2023-03-08T19:53:13.884Z,0.50
2023-03-08T19:55:53.745Z,0.70
2023-03-08T19:58:21.427Z,0.80
2023-03-08T20:00:48.495Z,0.70
2023-03-08T20:03:17.019Z,0.60
2023-03-08T20:05:45.721Z,0.60
2023-03-08T20:08:13.139Z,0.70
2023-03-08T20:10:39.927Z,0.77
2023-03-08T20:13:06.661Z,0.50
2023-03-08T20:15:33.573Z,0.50
2023-03-08T20:18:00.361Z,0.68
2023-03-08T20:20:27.216Z,0.50
2023-03-08T20:22:54.062Z,0.68
2023-03-08T20:25:20.834Z,0.60
2023-03-08T20:27:47.670Z,0.40
2023-03-08T20:30:14.887Z,0.50
2023-03-08T20:32:41.698Z,0.60
2023-03-08T20:35:13.699Z,0.60
2023-03-08T20:37:40.815Z,0.38
2023-03-08T20:40:11.131Z,0.40
2023-03-08T20:42:37.881Z,0.60
2023-03-08T20:45:05.980Z,0.80
2023-03-08T20:47:33.052Z,0.60
2023-03-08T20:49:59.771Z,0.68
2023-03-08T20:52:26.570Z,0.60
2023-03-08T20:54:53.336Z,0.70
2023-03-08T20:57:20.154Z,0.60
2023-03-08T20:59:47.093Z,0.57
2023-03-08T21:02:13.927Z,0.50
2023-03-08T21:04:40.736Z,0.95
2023-03-08T21:07:07.580Z,0.40
2023-03-08T21:09:34.579Z,0.50
2023-03-08T21:12:01.365Z,0.65
2023-03-08T21:14:29.041Z,0.40
2023-03-08T21:16:55.865Z,0.50
2023-03-08T21:19:23.891Z,0.50
2023-03-08T21:21:51.376Z,0.50
2023-03-08T21:24:22.601Z,0.50
2023-03-08T21:26:50.063Z,0.50
2023-03-08T21:29:18.959Z,0.50
2023-03-08T21:31:49.688Z,0.45
2023-03-08T21:34:17.764Z,0.50
2023-03-08T21:36:44.876Z,0.40
2023-03-08T21:39:12.454Z,0.40
2023-03-08T21:41:42.690Z,0.40
2023-03-08T21:44:14.684Z,0.38
2023-03-08T21:46:42.476Z,0.30
2023-03-08T21:49:32.197Z,0.82
2023-03-08T21:51:59.006Z,0.40
2023-03-08T21:54:27.474Z,0.47
2023-03-08T21:56:54.328Z,0.50
2023-03-08T21:59:24.107Z,0.47
2023-03-08T22:01:54.034Z,0.70
2023-03-08T22:04:21.172Z,0.60
2023-03-08T22:06:48.070Z,0.88
2023-03-08T22:09:14.837Z,0.80
2023-03-08T22:11:41.650Z,0.88
2023-03-08T22:14:08.549Z,2.72
2023-03-08T22:16:37.869Z,1.17
2023-03-08T22:19:05.406Z,0.80
2023-03-08T22:21:32.549Z,2.50
2023-03-08T22:24:01.770Z,2.17
2023-03-08T22:26:29.890Z,1.60
2023-03-08T22:28:57.505Z,1.40
2023-03-08T22:31:25.973Z,0.80
2023-03-08T22:33:52.867Z,1.25
2023-03-08T22:36:20.559Z,0.80
2023-03-08T22:38:47.657Z,1.13
2023-03-08T22:41:21.112Z,1.00
2023-03-08T22:43:48.712Z,0.98
2023-03-08T22:46:27.993Z,1.00
2023-03-08T22:48:57.702Z,0.95
2023-03-08T22:51:27.578Z,1.30
2023-03-08T22:53:55.972Z,1.20
2023-03-08T22:56:26.456Z,1.17
2023-03-08T22:58:54.006Z,1.15
2023-03-08T23:01:22.810Z,1.63
2023-03-08T23:03:52.716Z,1.20
2023-03-08T23:06:20.051Z,1.27
2023-03-08T23:08:47.420Z,0.93
2023-03-08T23:11:14.255Z,0.80
2023-03-08T23:13:41.642Z,1.00
2023-03-08T23:16:11.371Z,0.90
2023-03-08T23:18:38.228Z,0.90
2023-03-08T23:21:07.336Z,0.93
2023-03-08T23:23:34.483Z,0.70
2023-03-08T23:26:04.210Z,0.90
2023-03-08T23:28:35.313Z,1.00
2023-03-08T23:31:07.596Z,0.68
2023-03-08T23:33:34.333Z,1.00
2023-03-08T23:36:01.106Z,0.90
2023-03-08T23:38:28.090Z,1.00
2023-03-08T23:40:54.787Z,1.27
2023-03-08T23:43:21.508Z,1.45
2023-03-08T23:45:48.278Z,0.93
2023-03-08T23:48:15.013Z,1.02
2023-03-08T23:50:41.843Z,0.93
2023-03-08T23:53:08.589Z,1.35
2023-03-08T23:55:40.733Z,1.38
2023-03-08T23:58:08.516Z,0.53
